sensor_id;sensor_type;location;lat;lon;timestamp;pressure;altitude;pressure_sealevel;temperature;humidity
81997;BME280;71500;50.806;8.774;2023-08-20T00:01:40;100122.23;;;20.81;80.59
81997;BME280;71500;50.806;8.774;2023-08-20T00:04:14;100117.77;;;20.76;80.62
81997;BME280;71500;50.806;8.774;2023-08-20T00:06:46;100109.67;;;20.73;80.74
81997;BME280;71500;50.806;8.774;2023-08-20T00:09:18;100112.92;;;20.71;80.84
81997;BME280;71500;50.806;8.774;2023-08-20T00:11:50;100112.19;;;20.68;80.82
81997;BME280;71500;50.806;8.774;2023-08-20T00:14:24;100120.39;;;20.64;80.94
81997;BME280;71500;50.806;8.774;2023-08-20T00:17:14;100128.79;;;20.62;80.96
81997;BME280;71500;50.806;8.774;2023-08-20T00:19:47;100135.82;;;20.62;81.05
81997;BME280;71500;50.806;8.774;2023-08-20T00:22:19;100133.58;;;20.55;80.93
81997;BME280;71500;50.806;8.774;2023-08-20T00:24:52;100133.72;;;20.53;81.15
81997;BME280;71500;50.806;8.774;2023-08-20T00:27:25;100133.36;;;20.51;81.17
81997;BME280;71500;50.806;8.774;2023-08-20T00:29:56;100137.34;;;20.48;81.05
81997;BME280;71500;50.806;8.774;2023-08-20T00:32:28;100142.27;;;20.47;81.08
81997;BME280;71500;50.806;8.774;2023-08-20T00:34:59;100136.07;;;20.41;81.19
81997;BME280;71500;50.806;8.774;2023-08-20T00:37:32;100132.85;;;20.43;81.42
81997;BME280;71500;50.806;8.774;2023-08-20T00:40:03;100134.40;;;20.40;81.43
81997;BME280;71500;50.806;8.774;2023-08-20T00:42:36;100134.58;;;20.37;81.39
81997;BME280;71500;50.806;8.774;2023-08-20T00:45:09;100127.11;;;20.35;81.45
81997;BME280;71500;50.806;8.774;2023-08-20T00:47:41;100126.84;;;20.35;81.44
81997;BME280;71500;50.806;8.774;2023-08-20T00:50:13;100136.56;;;20.33;81.45
81997;BME280;71500;50.806;8.774;2023-08-20T00:52:45;100146.70;;;20.33;81.55
81997;BME280;71500;50.806;8.774;2023-08-20T00:55:16;100156.86;;;20.32;81.53
81997;BME280;71500;50.806;8.774;2023-08-20T00:57:48;100160.42;;;20.31;81.43
81997;BME280;71500;50.806;8.774;2023-08-20T01:00:19;100153.00;;;20.30;81.50
81997;BME280;71500;50.806;8.774;2023-08-20T01:02:50;100153.17;;;20.27;81.49
81997;BME280;71500;50.806;8.774;2023-08-20T01:05:22;100152.73;;;20.25;81.68
81997;BME280;71500;50.806;8.774;2023-08-20T01:08:00;100150.95;;;20.22;81.67
81997;BME280;71500;50.806;8.774;2023-08-20T01:10:43;100150.81;;;20.22;81.61
81997;BME280;71500;50.806;8.774;2023-08-20T01:13:19;100152.34;;;20.20;81.51
81997;BME280;71500;50.806;8.774;2023-08-20T01:15:50;100151.39;;;20.19;81.67
81997;BME280;71500;50.806;8.774;2023-08-20T01:18:22;100148.10;;;20.19;81.59
81997;BME280;71500;50.806;8.774;2023-08-20T01:20:58;100146.65;;;20.19;81.71
81997;BME280;71500;50.806;8.774;2023-08-20T01:23:56;100149.47;;;20.18;81.75
81997;BME280;71500;50.806;8.774;2023-08-20T01:29:29;100147.92;;;20.17;81.70
81997;BME280;71500;50.806;8.774;2023-08-20T01:32:01;100152.88;;;20.18;81.71
81997;BME280;71500;50.806;8.774;2023-08-20T01:34:34;100157.00;;;20.18;81.59
81997;BME280;71500;50.806;8.774;2023-08-20T01:37:06;100156.95;;;20.14;81.62
81997;BME280;71500;50.806;8.774;2023-08-20T01:39:37;100164.86;;;20.20;81.60
81997;BME280;71500;50.806;8.774;2023-08-20T01:42:09;100167.38;;;20.22;81.58
81997;BME280;71500;50.806;8.774;2023-08-20T01:44:41;100166.64;;;20.22;81.55
81997;BME280;71500;50.806;8.774;2023-08-20T01:47:12;100165.51;;;20.22;81.55
81997;BME280;71500;50.806;8.774;2023-08-20T01:49:44;100164.34;;;20.22;81.42
81997;BME280;71500;50.806;8.774;2023-08-20T01:52:15;100167.00;;;20.22;81.29
81997;BME280;71500;50.806;8.774;2023-08-20T01:54:47;100168.70;;;20.21;81.31
81997;BME280;71500;50.806;8.774;2023-08-20T01:57:19;100167.23;;;20.21;81.21
81997;BME280;71500;50.806;8.774;2023-08-20T01:59:50;100163.70;;;20.21;81.18
81997;BME280;71500;50.806;8.774;2023-08-20T02:02:22;100165.23;;;20.20;81.22
81997;BME280;71500;50.806;8.774;2023-08-20T02:04:53;100169.10;;;20.20;81.40
81997;BME280;71500;50.806;8.774;2023-08-20T02:07:25;100176.17;;;20.21;81.31
81997;BME280;71500;50.806;8.774;2023-08-20T02:09:57;100172.02;;;20.21;81.17
81997;BME280;71500;50.806;8.774;2023-08-20T02:12:28;100172.00;;;20.19;81.02
81997;BME280;71500;50.806;8.774;2023-08-20T02:15:00;100166.95;;;20.18;81.22
81997;BME280;71500;50.806;8.774;2023-08-20T02:17:32;100164.36;;;20.17;81.14
81997;BME280;71500;50.806;8.774;2023-08-20T02:20:08;100164.54;;;20.15;80.98
81997;BME280;71500;50.806;8.774;2023-08-20T02:22:41;100164.08;;;20.15;81.00
81997;BME280;71500;50.806;8.774;2023-08-20T02:25:12;100165.55;;;20.13;81.13
81997;BME280;71500;50.806;8.774;2023-08-20T02:27:44;100164.94;;;20.14;81.09
81997;BME280;71500;50.806;8.774;2023-08-20T02:30:15;100165.79;;;20.14;80.98
81997;BME280;71500;50.806;8.774;2023-08-20T02:32:47;100160.86;;;20.13;80.97
81997;BME280;71500;50.806;8.774;2023-08-20T02:35:18;100162.07;;;20.14;80.94
81997;BME280;71500;50.806;8.774;2023-08-20T02:37:50;100161.86;;;20.14;80.91
81997;BME280;71500;50.806;8.774;2023-08-20T02:40:21;100161.89;;;20.12;80.86
81997;BME280;71500;50.806;8.774;2023-08-20T02:42:53;100155.51;;;20.11;80.88
81997;BME280;71500;50.806;8.774;2023-08-20T02:45:25;100156.02;;;20.09;80.86
81997;BME280;71500;50.806;8.774;2023-08-20T02:47:56;100155.76;;;20.11;80.83
81997;BME280;71500;50.806;8.774;2023-08-20T02:50:28;100148.80;;;20.10;80.71
81997;BME280;71500;50.806;8.774;2023-08-20T02:53:00;100145.95;;;20.10;80.58
81997;BME280;71500;50.806;8.774;2023-08-20T02:55:32;100145.08;;;20.10;80.46
81997;BME280;71500;50.806;8.774;2023-08-20T02:58:05;100147.06;;;20.08;80.53
81997;BME280;71500;50.806;8.774;2023-08-20T03:00:38;100148.23;;;20.07;80.70
81997;BME280;71500;50.806;8.774;2023-08-20T03:03:09;100152.79;;;20.07;80.47
81997;BME280;71500;50.806;8.774;2023-08-20T03:05:41;100157.42;;;20.05;80.29
81997;BME280;71500;50.806;8.774;2023-08-20T03:08:13;100158.73;;;20.01;80.49
81997;BME280;71500;50.806;8.774;2023-08-20T03:10:44;100157.61;;;19.97;80.36
81997;BME280;71500;50.806;8.774;2023-08-20T03:13:16;100155.15;;;19.94;80.48
81997;BME280;71500;50.806;8.774;2023-08-20T03:15:47;100148.64;;;19.90;80.44
81997;BME280;71500;50.806;8.774;2023-08-20T03:18:19;100149.46;;;19.86;80.54
81997;BME280;71500;50.806;8.774;2023-08-20T03:20:50;100151.90;;;19.85;80.60
81997;BME280;71500;50.806;8.774;2023-08-20T03:23:22;100148.50;;;19.81;80.51
81997;BME280;71500;50.806;8.774;2023-08-20T03:25:56;100148.05;;;19.79;80.61
81997;BME280;71500;50.806;8.774;2023-08-20T03:28:28;100154.02;;;19.76;80.70
81997;BME280;71500;50.806;8.774;2023-08-20T03:31:01;100156.05;;;19.74;80.81
81997;BME280;71500;50.806;8.774;2023-08-20T03:33:33;100148.69;;;19.68;80.67
81997;BME280;71500;50.806;8.774;2023-08-20T03:36:05;100154.15;;;19.64;80.83
81997;BME280;71500;50.806;8.774;2023-08-20T03:38:36;100153.76;;;19.60;81.02
81997;BME280;71500;50.806;8.774;2023-08-20T03:41:08;100154.70;;;19.59;80.88
81997;BME280;71500;50.806;8.774;2023-08-20T03:43:39;100159.25;;;19.57;80.84
81997;BME280;71500;50.806;8.774;2023-08-20T03:46:11;100170.05;;;19.57;80.97
81997;BME280;71500;50.806;8.774;2023-08-20T03:48:42;100173.88;;;19.57;80.81
81997;BME280;71500;50.806;8.774;2023-08-20T03:51:14;100171.91;;;19.56;80.85
81997;BME280;71500;50.806;8.774;2023-08-20T03:53:45;100173.65;;;19.53;80.86
81997;BME280;71500;50.806;8.774;2023-08-20T03:56:17;100178.13;;;19.50;80.89
81997;BME280;71500;50.806;8.774;2023-08-20T03:58:48;100183.01;;;19.49;80.95
81997;BME280;71500;50.806;8.774;2023-08-20T04:01:20;100179.04;;;19.47;80.91
81997;BME280;71500;50.806;8.774;2023-08-20T04:03:51;100182.69;;;19.47;81.03
81997;BME280;71500;50.806;8.774;2023-08-20T04:06:23;100192.31;;;19.46;80.96
81997;BME280;71500;50.806;8.774;2023-08-20T04:08:54;100202.09;;;19.46;81.09
81997;BME280;71500;50.806;8.774;2023-08-20T04:11:26;100197.35;;;19.44;81.06
81997;BME280;71500;50.806;8.774;2023-08-20T04:13:57;100202.02;;;19.42;81.07
81997;BME280;71500;50.806;8.774;2023-08-20T04:16:31;100210.19;;;19.41;81.06
81997;BME280;71500;50.806;8.774;2023-08-20T04:19:03;100211.16;;;19.40;80.99
81997;BME280;71500;50.806;8.774;2023-08-20T04:21:35;100211.56;;;19.39;81.05
81997;BME280;71500;50.806;8.774;2023-08-20T04:24:07;100216.77;;;19.37;80.99
81997;BME280;71500;50.806;8.774;2023-08-20T04:26:39;100210.73;;;19.35;81.13
81997;BME280;71500;50.806;8.774;2023-08-20T04:29:10;100204.33;;;19.32;81.05
81997;BME280;71500;50.806;8.774;2023-08-20T04:31:42;100204.92;;;19.29;81.07
81997;BME280;71500;50.806;8.774;2023-08-20T04:34:13;100208.46;;;19.28;81.24
81997;BME280;71500;50.806;8.774;2023-08-20T04:36:45;100205.30;;;19.28;81.08
81997;BME280;71500;50.806;8.774;2023-08-20T04:39:17;100201.52;;;19.25;81.09
81997;BME280;71500;50.806;8.774;2023-08-20T04:41:49;100201.06;;;19.26;81.24
81997;BME280;71500;50.806;8.774;2023-08-20T04:44:20;100207.17;;;19.26;81.14
81997;BME280;71500;50.806;8.774;2023-08-20T04:46:52;100212.16;;;19.23;81.28
81997;BME280;71500;50.806;8.774;2023-08-20T04:49:23;100212.39;;;19.20;81.29
81997;BME280;71500;50.806;8.774;2023-08-20T04:51:58;100213.65;;;19.18;81.19
81997;BME280;71500;50.806;8.774;2023-08-20T04:54:30;100208.88;;;19.17;81.20
81997;BME280;71500;50.806;8.774;2023-08-20T04:57:01;100209.26;;;19.16;81.15
81997;BME280;71500;50.806;8.774;2023-08-20T04:59:33;100211.58;;;19.14;81.39
81997;BME280;71500;50.806;8.774;2023-08-20T05:02:04;100218.71;;;19.13;81.23
81997;BME280;71500;50.806;8.774;2023-08-20T05:04:36;100221.29;;;19.12;81.35
81997;BME280;71500;50.806;8.774;2023-08-20T05:07:07;100220.52;;;19.10;81.46
81997;BME280;71500;50.806;8.774;2023-08-20T05:09:39;100228.17;;;19.11;81.50
81997;BME280;71500;50.806;8.774;2023-08-20T05:12:11;100234.30;;;19.13;81.59
81997;BME280;71500;50.806;8.774;2023-08-20T05:14:42;100244.52;;;19.14;81.61
81997;BME280;71500;50.806;8.774;2023-08-20T05:17:13;100249.23;;;19.17;81.70
81997;BME280;71500;50.806;8.774;2023-08-20T05:19:45;100247.89;;;19.19;81.50
81997;BME280;71500;50.806;8.774;2023-08-20T05:22:16;100249.27;;;19.21;81.56
81997;BME280;71500;50.806;8.774;2023-08-20T05:24:48;100250.53;;;19.23;81.52
81997;BME280;71500;50.806;8.774;2023-08-20T05:27:19;100255.17;;;19.25;81.54
81997;BME280;71500;50.806;8.774;2023-08-20T05:29:51;100255.46;;;19.27;81.61
81997;BME280;71500;50.806;8.774;2023-08-20T05:32:22;100260.09;;;19.29;81.62
81997;BME280;71500;50.806;8.774;2023-08-20T05:34:54;100262.92;;;19.31;81.53
81997;BME280;71500;50.806;8.774;2023-08-20T05:37:25;100262.61;;;19.33;81.59
81997;BME280;71500;50.806;8.774;2023-08-20T05:39:57;100257.72;;;19.37;81.55
81997;BME280;71500;50.806;8.774;2023-08-20T05:42:28;100250.44;;;19.39;81.55
81997;BME280;71500;50.806;8.774;2023-08-20T05:45:00;100256.77;;;19.40;81.60
81997;BME280;71500;50.806;8.774;2023-08-20T05:47:31;100258.91;;;19.43;81.67
81997;BME280;71500;50.806;8.774;2023-08-20T05:50:03;100272.48;;;19.46;81.53
81997;BME280;71500;50.806;8.774;2023-08-20T05:52:35;100270.66;;;19.49;81.50
81997;BME280;71500;50.806;8.774;2023-08-20T05:55:08;100279.52;;;19.52;81.64
81997;BME280;71500;50.806;8.774;2023-08-20T05:57:40;100280.88;;;19.54;81.47
81997;BME280;71500;50.806;8.774;2023-08-20T06:00:13;100277.92;;;19.56;81.65
81997;BME280;71500;50.806;8.774;2023-08-20T06:02:46;100279.52;;;19.59;81.48
81997;BME280;71500;50.806;8.774;2023-08-20T06:05:18;100280.09;;;19.63;81.25
81997;BME280;71500;50.806;8.774;2023-08-20T06:07:50;100282.38;;;19.69;81.30
81997;BME280;71500;50.806;8.774;2023-08-20T06:10:22;100283.08;;;19.70;81.22
81997;BME280;71500;50.806;8.774;2023-08-20T06:12:53;100295.80;;;19.77;81.21
81997;BME280;71500;50.806;8.774;2023-08-20T06:15:25;100289.45;;;19.76;81.16
81997;BME280;71500;50.806;8.774;2023-08-20T06:17:56;100288.48;;;19.78;81.09
81997;BME280;71500;50.806;8.774;2023-08-20T06:20:28;100287.17;;;19.81;81.21
81997;BME280;71500;50.806;8.774;2023-08-20T06:22:59;100283.66;;;19.85;81.01
81997;BME280;71500;50.806;8.774;2023-08-20T06:25:31;100282.73;;;19.87;81.05
81997;BME280;71500;50.806;8.774;2023-08-20T06:28:03;100278.34;;;19.90;81.09
81997;BME280;71500;50.806;8.774;2023-08-20T06:30:35;100274.70;;;19.93;81.15
81997;BME280;71500;50.806;8.774;2023-08-20T06:33:06;100277.90;;;19.96;80.93
81997;BME280;71500;50.806;8.774;2023-08-20T06:35:38;100280.31;;;19.99;80.92
81997;BME280;71500;50.806;8.774;2023-08-20T06:38:10;100277.34;;;20.04;81.13
81997;BME280;71500;50.806;8.774;2023-08-20T06:40:41;100275.65;;;20.09;80.86
81997;BME280;71500;50.806;8.774;2023-08-20T06:43:13;100279.18;;;20.14;80.63
81997;BME280;71500;50.806;8.774;2023-08-20T06:45:44;100283.71;;;20.18;80.69
81997;BME280;71500;50.806;8.774;2023-08-20T06:48:16;100279.05;;;20.23;80.62
81997;BME280;71500;50.806;8.774;2023-08-20T06:50:50;100278.94;;;20.27;80.48
81997;BME280;71500;50.806;8.774;2023-08-20T06:53:21;100274.55;;;20.30;80.65
81997;BME280;71500;50.806;8.774;2023-08-20T06:55:53;100268.00;;;20.35;80.44
81997;BME280;71500;50.806;8.774;2023-08-20T06:58:24;100264.98;;;20.42;80.45
81997;BME280;71500;50.806;8.774;2023-08-20T07:00:56;100265.30;;;20.48;80.34
81997;BME280;71500;50.806;8.774;2023-08-20T07:03:39;100272.80;;;20.54;80.26
81997;BME280;71500;50.806;8.774;2023-08-20T07:06:11;100272.23;;;20.55;80.29
81997;BME280;71500;50.806;8.774;2023-08-20T07:08:44;100281.48;;;20.64;80.18
81997;BME280;71500;50.806;8.774;2023-08-20T07:11:16;100278.19;;;20.68;80.27
81997;BME280;71500;50.806;8.774;2023-08-20T07:13:47;100280.85;;;20.71;80.24
81997;BME280;71500;50.806;8.774;2023-08-20T07:16:19;100282.42;;;20.73;80.21
81997;BME280;71500;50.806;8.774;2023-08-20T07:18:50;100282.05;;;20.76;80.03
81997;BME280;71500;50.806;8.774;2023-08-20T07:21:23;100284.54;;;20.79;80.17
81997;BME280;71500;50.806;8.774;2023-08-20T07:23:54;100281.39;;;20.82;79.96
81997;BME280;71500;50.806;8.774;2023-08-20T07:26:26;100285.04;;;20.86;80.06
81997;BME280;71500;50.806;8.774;2023-08-20T07:28:57;100294.93;;;20.91;80.15
81997;BME280;71500;50.806;8.774;2023-08-20T07:31:32;100300.97;;;20.97;79.92
81997;BME280;71500;50.806;8.774;2023-08-20T07:34:04;100297.51;;;21.01;80.04
81997;BME280;71500;50.806;8.774;2023-08-20T07:36:42;100303.14;;;21.06;79.91
81997;BME280;71500;50.806;8.774;2023-08-20T07:39:13;100302.58;;;21.11;79.77
81997;BME280;71500;50.806;8.774;2023-08-20T07:41:48;100301.56;;;21.16;79.73
81997;BME280;71500;50.806;8.774;2023-08-20T07:44:19;100294.81;;;21.20;79.70
81997;BME280;71500;50.806;8.774;2023-08-20T07:46:51;100287.48;;;21.27;79.56
81997;BME280;71500;50.806;8.774;2023-08-20T07:49:22;100271.40;;;21.28;79.42
81997;BME280;71500;50.806;8.774;2023-08-20T07:51:54;100270.23;;;21.32;79.46
81997;BME280;71500;50.806;8.774;2023-08-20T07:54:26;100271.65;;;21.36;79.64
81997;BME280;71500;50.806;8.774;2023-08-20T07:56:59;100271.77;;;21.43;79.25
81997;BME280;71500;50.806;8.774;2023-08-20T07:59:30;100277.73;;;21.48;79.09
81997;BME280;71500;50.806;8.774;2023-08-20T08:02:02;100281.90;;;21.54;79.18
81997;BME280;71500;50.806;8.774;2023-08-20T08:04:33;100279.96;;;21.59;79.19
81997;BME280;71500;50.806;8.774;2023-08-20T08:07:05;100272.89;;;21.60;79.16
81997;BME280;71500;50.806;8.774;2023-08-20T08:09:37;100274.45;;;21.68;79.09
81997;BME280;71500;50.806;8.774;2023-08-20T08:12:09;100279.82;;;21.72;79.11
81997;BME280;71500;50.806;8.774;2023-08-20T08:14:40;100281.34;;;21.74;78.98
81997;BME280;71500;50.806;8.774;2023-08-20T08:17:12;100281.95;;;21.79;78.83
81997;BME280;71500;50.806;8.774;2023-08-20T08:19:43;100275.84;;;21.84;78.92
81997;BME280;71500;50.806;8.774;2023-08-20T08:22:15;100280.17;;;21.90;78.98
81997;BME280;71500;50.806;8.774;2023-08-20T08:24:46;100285.73;;;21.96;78.81
81997;BME280;71500;50.806;8.774;2023-08-20T08:27:18;100280.52;;;22.01;78.91
81997;BME280;71500;50.806;8.774;2023-08-20T08:29:50;100285.98;;;22.06;78.76
81997;BME280;71500;50.806;8.774;2023-08-20T08:32:21;100284.10;;;22.11;78.76
81997;BME280;71500;50.806;8.774;2023-08-20T08:34:52;100280.03;;;22.15;78.86
81997;BME280;71500;50.806;8.774;2023-08-20T08:37:24;100279.73;;;22.21;78.66
81997;BME280;71500;50.806;8.774;2023-08-20T08:39:55;100281.61;;;22.26;78.47
81997;BME280;71500;50.806;8.774;2023-08-20T08:42:27;100282.07;;;22.30;78.58
81997;BME280;71500;50.806;8.774;2023-08-20T08:44:59;100279.20;;;22.34;78.41
81997;BME280;71500;50.806;8.774;2023-08-20T08:47:31;100270.71;;;22.38;78.44
81997;BME280;71500;50.806;8.774;2023-08-20T08:50:06;100273.38;;;22.43;78.26
81997;BME280;71500;50.806;8.774;2023-08-20T08:52:40;100273.58;;;22.48;78.64
81997;BME280;71500;50.806;8.774;2023-08-20T08:55:12;100276.90;;;22.53;78.74
81997;BME280;71500;50.806;8.774;2023-08-20T08:57:44;100280.16;;;22.62;78.33
81997;BME280;71500;50.806;8.774;2023-08-20T09:00:17;100277.93;;;22.68;77.82
81997;BME280;71500;50.806;8.774;2023-08-20T09:02:48;100282.80;;;22.74;77.63
81997;BME280;71500;50.806;8.774;2023-08-20T09:05:20;100281.91;;;22.81;77.43
81997;BME280;71500;50.806;8.774;2023-08-20T09:07:56;100283.65;;;22.87;77.44
81997;BME280;71500;50.806;8.774;2023-08-20T09:10:28;100284.39;;;22.94;77.06
81997;BME280;71500;50.806;8.774;2023-08-20T09:13:00;100285.16;;;22.97;77.13
81997;BME280;71500;50.806;8.774;2023-08-20T09:15:34;100283.91;;;23.01;76.94
81997;BME280;71500;50.806;8.774;2023-08-20T09:18:10;100286.02;;;23.04;75.81
81997;BME280;71500;50.806;8.774;2023-08-20T09:20:42;100285.57;;;23.06;75.93
81997;BME280;71500;50.806;8.774;2023-08-20T09:23:14;100287.29;;;23.08;76.34
81997;BME280;71500;50.806;8.774;2023-08-20T09:25:45;100282.65;;;23.09;76.60
81997;BME280;71500;50.806;8.774;2023-08-20T09:28:17;100285.45;;;23.10;76.33
81997;BME280;71500;50.806;8.774;2023-08-20T09:30:59;100283.82;;;23.10;76.32
81997;BME280;71500;50.806;8.774;2023-08-20T09:33:32;100279.77;;;23.10;76.16
81997;BME280;71500;50.806;8.774;2023-08-20T09:36:05;100276.52;;;23.12;75.75
81997;BME280;71500;50.806;8.774;2023-08-20T09:38:39;100278.33;;;23.15;75.50
81997;BME280;71500;50.806;8.774;2023-08-20T09:41:10;100286.28;;;23.20;75.49
81997;BME280;71500;50.806;8.774;2023-08-20T09:43:45;100284.44;;;23.24;74.74
81997;BME280;71500;50.806;8.774;2023-08-20T09:46:18;100285.10;;;23.28;74.59
81997;BME280;71500;50.806;8.774;2023-08-20T09:48:52;100282.46;;;23.32;74.94
81997;BME280;71500;50.806;8.774;2023-08-20T09:51:27;100288.77;;;23.33;74.02
81997;BME280;71500;50.806;8.774;2023-08-20T09:54:02;100285.42;;;23.34;74.29
81997;BME280;71500;50.806;8.774;2023-08-20T09:56:40;100286.60;;;23.35;74.04
81997;BME280;71500;50.806;8.774;2023-08-20T09:59:14;100284.42;;;23.37;74.01
81997;BME280;71500;50.806;8.774;2023-08-20T10:01:48;100282.02;;;23.39;73.84
81997;BME280;71500;50.806;8.774;2023-08-20T10:04:18;100280.71;;;23.42;73.39
81997;BME280;71500;50.806;8.774;2023-08-20T10:06:53;100275.56;;;23.41;73.64
81997;BME280;71500;50.806;8.774;2023-08-20T10:09:26;100273.58;;;23.44;73.72
81997;BME280;71500;50.806;8.774;2023-08-20T10:11:58;100270.81;;;23.44;73.33
81997;BME280;71500;50.806;8.774;2023-08-20T10:14:31;100269.91;;;23.46;72.99
81997;BME280;71500;50.806;8.774;2023-08-20T10:17:09;100273.24;;;23.50;73.27
81997;BME280;71500;50.806;8.774;2023-08-20T10:19:40;100262.46;;;23.49;72.89
81997;BME280;71500;50.806;8.774;2023-08-20T10:22:13;100265.93;;;23.53;73.00
81997;BME280;71500;50.806;8.774;2023-08-20T10:24:51;100265.73;;;23.57;72.63
81997;BME280;71500;50.806;8.774;2023-08-20T10:27:27;100264.27;;;23.59;73.01
81997;BME280;71500;50.806;8.774;2023-08-20T10:29:59;100262.55;;;23.63;72.89
81997;BME280;71500;50.806;8.774;2023-08-20T10:32:49;100265.23;;;23.65;72.74
81997;BME280;71500;50.806;8.774;2023-08-20T10:35:25;100269.80;;;23.69;72.21
81997;BME280;71500;50.806;8.774;2023-08-20T10:38:05;100261.13;;;23.73;72.38
81997;BME280;71500;50.806;8.774;2023-08-20T10:40:52;100259.08;;;23.76;72.07
81997;BME280;71500;50.806;8.774;2023-08-20T10:43:32;100259.84;;;23.81;72.01
81997;BME280;71500;50.806;8.774;2023-08-20T10:48:57;100256.84;;;23.91;72.25
81997;BME280;71500;50.806;8.774;2023-08-20T10:51:31;100258.95;;;23.95;71.97
81997;BME280;71500;50.806;8.774;2023-08-20T10:54:07;100252.34;;;23.97;71.76
81997;BME280;71500;50.806;8.774;2023-08-20T10:56:42;100254.41;;;24.02;71.58
81997;BME280;71500;50.806;8.774;2023-08-20T10:59:16;100255.51;;;24.07;71.80
81997;BME280;71500;50.806;8.774;2023-08-20T11:01:49;100249.02;;;24.06;71.88
81997;BME280;71500;50.806;8.774;2023-08-20T11:04:22;100259.34;;;24.14;71.42
81997;BME280;71500;50.806;8.774;2023-08-20T11:06:55;100259.94;;;24.19;71.90
81997;BME280;71500;50.806;8.774;2023-08-20T11:09:29;100261.29;;;24.22;71.67
81997;BME280;71500;50.806;8.774;2023-08-20T11:12:00;100260.30;;;24.25;71.73
81997;BME280;71500;50.806;8.774;2023-08-20T11:14:32;100259.73;;;24.29;71.62
81997;BME280;71500;50.806;8.774;2023-08-20T11:17:03;100258.09;;;24.33;71.55
81997;BME280;71500;50.806;8.774;2023-08-20T11:19:35;100255.98;;;24.37;71.64
81997;BME280;71500;50.806;8.774;2023-08-20T11:22:07;100251.10;;;24.39;71.15
81997;BME280;71500;50.806;8.774;2023-08-20T11:24:41;100250.23;;;24.43;71.31
81997;BME280;71500;50.806;8.774;2023-08-20T11:27:13;100242.40;;;24.46;71.27
81997;BME280;71500;50.806;8.774;2023-08-20T11:29:45;100243.54;;;24.48;71.47
81997;BME280;71500;50.806;8.774;2023-08-20T11:32:19;100242.34;;;24.50;71.61
81997;BME280;71500;50.806;8.774;2023-08-20T11:34:51;100242.77;;;24.50;70.94
81997;BME280;71500;50.806;8.774;2023-08-20T11:37:23;100241.63;;;24.52;70.33
81997;BME280;71500;50.806;8.774;2023-08-20T11:39:55;100241.24;;;24.55;70.80
81997;BME280;71500;50.806;8.774;2023-08-20T11:42:26;100247.63;;;24.60;70.67
81997;BME280;71500;50.806;8.774;2023-08-20T11:44:58;100241.85;;;24.62;69.58
81997;BME280;71500;50.806;8.774;2023-08-20T11:47:30;100237.64;;;24.67;69.03
81997;BME280;71500;50.806;8.774;2023-08-20T11:50:10;100241.33;;;24.72;69.34
81997;BME280;71500;50.806;8.774;2023-08-20T11:52:42;100241.35;;;24.76;69.11
81997;BME280;71500;50.806;8.774;2023-08-20T11:55:13;100239.80;;;24.79;69.05
81997;BME280;71500;50.806;8.774;2023-08-20T11:57:51;100235.76;;;24.82;69.17
81997;BME280;71500;50.806;8.774;2023-08-20T12:00:32;100233.85;;;24.85;69.36
81997;BME280;71500;50.806;8.774;2023-08-20T12:03:04;100237.08;;;24.88;69.41
81997;BME280;71500;50.806;8.774;2023-08-20T12:05:36;100233.70;;;24.90;68.87
81997;BME280;71500;50.806;8.774;2023-08-20T12:08:07;100234.34;;;24.97;68.71
81997;BME280;71500;50.806;8.774;2023-08-20T12:10:43;100227.42;;;24.98;68.21
81997;BME280;71500;50.806;8.774;2023-08-20T12:13:14;100226.27;;;25.01;68.65
81997;BME280;71500;50.806;8.774;2023-08-20T12:15:46;100227.42;;;25.03;68.93
81997;BME280;71500;50.806;8.774;2023-08-20T12:18:19;100224.54;;;25.03;68.68
81997;BME280;71500;50.806;8.774;2023-08-20T12:20:50;100220.60;;;25.03;68.37
81997;BME280;71500;50.806;8.774;2023-08-20T12:23:22;100221.56;;;25.03;68.76
81997;BME280;71500;50.806;8.774;2023-08-20T12:25:53;100214.58;;;25.01;68.89
81997;BME280;71500;50.806;8.774;2023-08-20T12:28:25;100218.30;;;25.01;69.18
81997;BME280;71500;50.806;8.774;2023-08-20T12:30:56;100218.26;;;25.01;68.08
81997;BME280;71500;50.806;8.774;2023-08-20T12:33:28;100214.52;;;25.05;67.75
81997;BME280;71500;50.806;8.774;2023-08-20T12:36:00;100210.09;;;25.08;68.43
81997;BME280;71500;50.806;8.774;2023-08-20T12:38:31;100209.74;;;25.10;68.39
81997;BME280;71500;50.806;8.774;2023-08-20T12:41:04;100205.36;;;25.13;68.43
81997;BME280;71500;50.806;8.774;2023-08-20T12:43:36;100209.63;;;25.14;67.87
81997;BME280;71500;50.806;8.774;2023-08-20T12:46:07;100208.87;;;25.16;68.06
81997;BME280;71500;50.806;8.774;2023-08-20T12:48:39;100208.33;;;25.16;67.73
81997;BME280;71500;50.806;8.774;2023-08-20T12:51:11;100209.66;;;25.17;68.06
81997;BME280;71500;50.806;8.774;2023-08-20T12:53:44;100205.62;;;25.17;67.75
81997;BME280;71500;50.806;8.774;2023-08-20T12:56:16;100201.10;;;25.17;67.45
81997;BME280;71500;50.806;8.774;2023-08-20T12:58:48;100202.41;;;25.17;67.00
81997;BME280;71500;50.806;8.774;2023-08-20T13:01:19;100198.64;;;25.16;66.78
81997;BME280;71500;50.806;8.774;2023-08-20T13:03:52;100192.02;;;25.16;67.09
81997;BME280;71500;50.806;8.774;2023-08-20T13:06:25;100193.98;;;25.19;67.01
81997;BME280;71500;50.806;8.774;2023-08-20T13:08:58;100189.23;;;25.17;66.44
81997;BME280;71500;50.806;8.774;2023-08-20T13:11:30;100191.74;;;25.19;66.76
81997;BME280;71500;50.806;8.774;2023-08-20T13:14:03;100189.49;;;25.23;66.37
81997;BME280;71500;50.806;8.774;2023-08-20T13:16:36;100187.03;;;25.27;66.35
81997;BME280;71500;50.806;8.774;2023-08-20T13:19:09;100191.45;;;25.31;66.04
81997;BME280;71500;50.806;8.774;2023-08-20T13:21:41;100184.73;;;25.34;66.08
81997;BME280;71500;50.806;8.774;2023-08-20T13:24:12;100182.66;;;25.37;65.13